sensor_id;sensor_type;location;lat;lon;timestamp;pressure;altitude;pressure_sealevel;temperature;humidity
19510;BME280;9896;42.486;26.506;2022-10-17T00:00:36;101230.13;;;8.70;63.11
19510;BME280;9896;42.486;26.506;2022-10-17T00:03:02;101226.22;;;8.57;63.68
19510;BME280;9896;42.486;26.506;2022-10-17T00:05:28;101228.34;;;8.45;64.27
19510;BME280;9896;42.486;26.506;2022-10-17T00:07:53;101233.31;;;8.40;64.08
19510;BME280;9896;42.486;26.506;2022-10-17T00:10:19;101229.47;;;8.34;64.42
19510;BME280;9896;42.486;26.506;2022-10-17T00:12:45;101231.81;;;8.12;65.38
19510;BME280;9896;42.486;26.506;2022-10-17T00:15:14;101233.13;;;8.08;65.16
19510;BME280;9896;42.486;26.506;2022-10-17T00:17:40;101239.81;;;8.12;65.22
19510;BME280;9896;42.486;26.506;2022-10-17T00:20:06;101239.34;;;8.16;64.85
19510;BME280;9896;42.486;26.506;2022-10-17T00:22:32;101234.53;;;8.20;64.63
19510;BME280;9896;42.486;26.506;2022-10-17T00:24:57;101237.19;;;8.20;65.09
19510;BME280;9896;42.486;26.506;2022-10-17T00:27:23;101241.56;;;8.21;64.90
19510;BME280;9896;42.486;26.506;2022-10-17T00:29:50;101232.31;;;8.15;64.96
19510;BME280;9896;42.486;26.506;2022-10-17T00:32:16;101233.91;;;8.26;64.25
19510;BME280;9896;42.486;26.506;2022-10-17T00:34:42;101237.88;;;7.96;65.36
19510;BME280;9896;42.486;26.506;2022-10-17T00:37:08;101227.28;;;7.78;65.95
19510;BME280;9896;42.486;26.506;2022-10-17T00:39:33;101234.13;;;7.81;66.53
19510;BME280;9896;42.486;26.506;2022-10-17T00:41:59;101234.50;;;7.86;65.83
19510;BME280;9896;42.486;26.506;2022-10-17T00:46:57;101233.00;;;7.66;66.79
19510;BME280;9896;42.486;26.506;2022-10-17T00:49:25;101217.59;;;7.42;67.13
19510;BME280;9896;42.486;26.506;2022-10-17T00:51:53;101229.50;;;7.30;68.99
19510;BME280;9896;42.486;26.506;2022-10-17T00:54:23;101231.84;;;6.97;70.85
19510;BME280;9896;42.486;26.506;2022-10-17T00:56:50;101235.81;;;6.76;71.47
19510;BME280;9896;42.486;26.506;2022-10-17T00:59:17;101236.75;;;7.02;71.46
19510;BME280;9896;42.486;26.506;2022-10-17T01:01:52;101236.28;;;7.07;71.30
19510;BME280;9896;42.486;26.506;2022-10-17T01:04:18;101232.88;;;6.96;72.22
19510;BME280;9896;42.486;26.506;2022-10-17T01:06:44;101236.88;;;6.83;72.60
19510;BME280;9896;42.486;26.506;2022-10-17T01:09:09;101233.38;;;6.82;72.11
19510;BME280;9896;42.486;26.506;2022-10-17T01:11:48;101230.81;;;6.63;73.15
19510;BME280;9896;42.486;26.506;2022-10-17T01:14:30;101229.25;;;6.43;75.27
19510;BME280;9896;42.486;26.506;2022-10-17T01:17:09;101233.44;;;6.36;75.57
19510;BME280;9896;42.486;26.506;2022-10-17T01:28:42;101229.91;;;6.18;75.72
19510;BME280;9896;42.486;26.506;2022-10-17T01:31:21;101224.44;;;6.46;73.57
19510;BME280;9896;42.486;26.506;2022-10-17T01:36:35;101225.09;;;6.31;73.25
19510;BME280;9896;42.486;26.506;2022-10-17T01:39:27;101233.94;;;6.22;73.30
19510;BME280;9896;42.486;26.506;2022-10-17T01:44:31;101228.41;;;6.42;72.58
19510;BME280;9896;42.486;26.506;2022-10-17T01:47:10;101222.78;;;6.36;73.07
19510;BME280;9896;42.486;26.506;2022-10-17T01:49:40;101228.78;;;6.75;71.61
19510;BME280;9896;42.486;26.506;2022-10-17T01:52:29;101230.56;;;6.84;70.78
19510;BME280;9896;42.486;26.506;2022-10-17T01:55:05;101231.00;;;6.79;71.50
19510;BME280;9896;42.486;26.506;2022-10-17T01:57:54;101232.03;;;6.96;70.94
19510;BME280;9896;42.486;26.506;2022-10-17T02:00:23;101227.38;;;7.16;69.81
19510;BME280;9896;42.486;26.506;2022-10-17T02:02:55;101234.53;;;6.97;70.06
19510;BME280;9896;42.486;26.506;2022-10-17T02:05:23;101237.81;;;7.09;70.57
19510;BME280;9896;42.486;26.506;2022-10-17T02:07:50;101226.69;;;6.96;69.96
19510;BME280;9896;42.486;26.506;2022-10-17T02:10:25;101221.28;;;7.06;69.53
19510;BME280;9896;42.486;26.506;2022-10-17T02:15:31;101243.31;;;7.08;70.16
19510;BME280;9896;42.486;26.506;2022-10-17T02:20:32;101238.56;;;7.01;70.98
19510;BME280;9896;42.486;26.506;2022-10-17T02:25:37;101254.28;;;7.05;70.94
19510;BME280;9896;42.486;26.506;2022-10-17T02:30:53;101252.16;;;7.26;68.79
19510;BME280;9896;42.486;26.506;2022-10-17T02:33:48;101246.81;;;7.26;68.80
19510;BME280;9896;42.486;26.506;2022-10-17T02:36:23;101240.66;;;7.25;69.34
19510;BME280;9896;42.486;26.506;2022-10-17T02:38:52;101258.19;;;7.28;68.60
19510;BME280;9896;42.486;26.506;2022-10-17T02:41:21;101250.03;;;7.29;68.84
19510;BME280;9896;42.486;26.506;2022-10-17T02:43:49;101249.25;;;7.19;69.19
19510;BME280;9896;42.486;26.506;2022-10-17T02:46:17;101253.66;;;7.11;69.52
19510;BME280;9896;42.486;26.506;2022-10-17T02:49:01;101266.69;;;7.14;70.19
19510;BME280;9896;42.486;26.506;2022-10-17T02:51:51;101268.38;;;7.15;70.82
19510;BME280;9896;42.486;26.506;2022-10-17T02:54:30;101271.41;;;7.02;70.30
19510;BME280;9896;42.486;26.506;2022-10-17T02:57:05;101272.78;;;7.06;70.09
19510;BME280;9896;42.486;26.506;2022-10-17T02:59:34;101281.69;;;6.97;70.23
19510;BME280;9896;42.486;26.506;2022-10-17T03:02:05;101275.88;;;6.84;70.37
19510;BME280;9896;42.486;26.506;2022-10-17T03:04:31;101275.88;;;6.84;70.35
19510;BME280;9896;42.486;26.506;2022-10-17T03:06:57;101273.34;;;6.82;70.05
19510;BME280;9896;42.486;26.506;2022-10-17T03:09:22;101277.25;;;6.88;69.24
19510;BME280;9896;42.486;26.506;2022-10-17T03:11:48;101275.38;;;6.71;72.84
19510;BME280;9896;42.486;26.506;2022-10-17T03:14:13;101278.03;;;6.71;73.92
19510;BME280;9896;42.486;26.506;2022-10-17T03:16:39;101272.94;;;6.50;76.72
19510;BME280;9896;42.486;26.506;2022-10-17T03:19:04;101277.72;;;6.56;76.63
19510;BME280;9896;42.486;26.506;2022-10-17T03:21:30;101272.53;;;6.45;77.88
19510;BME280;9896;42.486;26.506;2022-10-17T03:23:55;101270.28;;;6.50;77.35
19510;BME280;9896;42.486;26.506;2022-10-17T03:26:21;101279.75;;;6.35;78.96
19510;BME280;9896;42.486;26.506;2022-10-17T03:28:46;101274.00;;;6.30;76.68
19510;BME280;9896;42.486;26.506;2022-10-17T03:31:14;101270.31;;;6.40;77.30
19510;BME280;9896;42.486;26.506;2022-10-17T03:33:40;101270.53;;;6.20;77.86
19510;BME280;9896;42.486;26.506;2022-10-17T03:36:07;101271.88;;;6.43;76.36
19510;BME280;9896;42.486;26.506;2022-10-17T03:38:33;101267.72;;;6.21;77.81
19510;BME280;9896;42.486;26.506;2022-10-17T03:40:59;101278.91;;;6.34;76.55
19510;BME280;9896;42.486;26.506;2022-10-17T03:43:24;101263.31;;;6.39;77.40
19510;BME280;9896;42.486;26.506;2022-10-17T03:45:50;101272.59;;;6.35;76.49
19510;BME280;9896;42.486;26.506;2022-10-17T03:48:15;101273.88;;;6.31;77.20
19510;BME280;9896;42.486;26.506;2022-10-17T03:50:41;101278.50;;;6.29;77.04
19510;BME280;9896;42.486;26.506;2022-10-17T03:53:06;101275.16;;;6.18;79.08
19510;BME280;9896;42.486;26.506;2022-10-17T03:55:32;101287.06;;;6.23;79.81
19510;BME280;9896;42.486;26.506;2022-10-17T03:57:58;101275.50;;;6.42;79.36
19510;BME280;9896;42.486;26.506;2022-10-17T04:00:24;101285.06;;;6.35;75.09
19510;BME280;9896;42.486;26.506;2022-10-17T04:02:49;101288.19;;;6.58;75.09
19510;BME280;9896;42.486;26.506;2022-10-17T04:05:15;101280.91;;;6.60;72.93
19510;BME280;9896;42.486;26.506;2022-10-17T04:07:40;101275.81;;;6.66;72.73
19510;BME280;9896;42.486;26.506;2022-10-17T04:10:06;101273.78;;;6.78;73.29
19510;BME280;9896;42.486;26.506;2022-10-17T04:12:31;101268.78;;;6.75;72.00
19510;BME280;9896;42.486;26.506;2022-10-17T04:14:57;101284.25;;;6.89;72.50
19510;BME280;9896;42.486;26.506;2022-10-17T04:17:22;101279.19;;;6.68;72.87
19510;BME280;9896;42.486;26.506;2022-10-17T04:19:48;101287.31;;;6.67;73.12
19510;BME280;9896;42.486;26.506;2022-10-17T04:22:14;101286.38;;;6.85;72.81
19510;BME280;9896;42.486;26.506;2022-10-17T04:24:39;101293.81;;;6.91;71.42
19510;BME280;9896;42.486;26.506;2022-10-17T04:27:05;101300.28;;;7.07;70.49
19510;BME280;9896;42.486;26.506;2022-10-17T04:29:31;101295.50;;;7.10;71.02
19510;BME280;9896;42.486;26.506;2022-10-17T04:31:56;101290.34;;;7.09;71.22
19510;BME280;9896;42.486;26.506;2022-10-17T04:34:22;101291.25;;;7.17;71.10
19510;BME280;9896;42.486;26.506;2022-10-17T04:36:47;101291.00;;;7.11;70.79
19510;BME280;9896;42.486;26.506;2022-10-17T04:39:13;101291.34;;;7.25;70.03
19510;BME280;9896;42.486;26.506;2022-10-17T04:41:38;101301.34;;;7.41;70.46
19510;BME280;9896;42.486;26.506;2022-10-17T04:44:04;101305.28;;;7.55;69.59
19510;BME280;9896;42.486;26.506;2022-10-17T04:46:32;101306.06;;;7.47;69.82
19510;BME280;9896;42.486;26.506;2022-10-17T04:48:58;101311.16;;;7.58;70.44
19510;BME280;9896;42.486;26.506;2022-10-17T04:51:23;101306.06;;;7.82;69.38
19510;BME280;9896;42.486;26.506;2022-10-17T04:53:49;101315.22;;;7.80;70.02
19510;BME280;9896;42.486;26.506;2022-10-17T04:56:16;101313.19;;;8.00;68.88
19510;BME280;9896;42.486;26.506;2022-10-17T04:58:42;101318.84;;;7.97;68.96
19510;BME280;9896;42.486;26.506;2022-10-17T05:01:11;101310.75;;;8.06;68.58
19510;BME280;9896;42.486;26.506;2022-10-17T05:03:37;101323.78;;;8.27;68.57
19510;BME280;9896;42.486;26.506;2022-10-17T05:06:11;101321.09;;;8.27;68.09
19510;BME280;9896;42.486;26.506;2022-10-17T05:08:37;101326.78;;;8.50;68.02
19510;BME280;9896;42.486;26.506;2022-10-17T05:11:03;101334.38;;;8.62;66.58
19510;BME280;9896;42.486;26.506;2022-10-17T05:13:28;101331.84;;;8.61;66.74
19510;BME280;9896;42.486;26.506;2022-10-17T05:16:01;101339.66;;;8.54;67.02
19510;BME280;9896;42.486;26.506;2022-10-17T05:18:27;101336.56;;;8.67;66.94
19510;BME280;9896;42.486;26.506;2022-10-17T05:20:52;101358.63;;;8.69;66.92
19510;BME280;9896;42.486;26.506;2022-10-17T05:23:18;101352.44;;;8.68;66.33
19510;BME280;9896;42.486;26.506;2022-10-17T05:25:43;101355.03;;;9.20;65.22
19510;BME280;9896;42.486;26.506;2022-10-17T05:28:09;101366.66;;;9.03;64.78
19510;BME280;9896;42.486;26.506;2022-10-17T05:30:34;101360.88;;;9.15;64.37
19510;BME280;9896;42.486;26.506;2022-10-17T05:33:01;101361.22;;;9.20;64.74
19510;BME280;9896;42.486;26.506;2022-10-17T05:35:26;101368.81;;;9.41;63.66
19510;BME280;9896;42.486;26.506;2022-10-17T05:37:52;101369.97;;;9.39;63.08
19510;BME280;9896;42.486;26.506;2022-10-17T05:40:17;101369.69;;;9.58;62.16
19510;BME280;9896;42.486;26.506;2022-10-17T05:42:46;101365.41;;;9.89;60.83
19510;BME280;9896;42.486;26.506;2022-10-17T05:45:12;101366.00;;;9.59;61.59
19510;BME280;9896;42.486;26.506;2022-10-17T05:47:38;101378.28;;;9.86;60.90
19510;BME280;9896;42.486;26.506;2022-10-17T05:50:04;101387.81;;;9.96;60.14
19510;BME280;9896;42.486;26.506;2022-10-17T05:52:29;101383.31;;;10.13;59.46
19510;BME280;9896;42.486;26.506;2022-10-17T05:54:55;101387.72;;;10.30;58.31
19510;BME280;9896;42.486;26.506;2022-10-17T05:57:20;101376.31;;;10.28;58.32
19510;BME280;9896;42.486;26.506;2022-10-17T05:59:48;101387.19;;;10.51;57.55
19510;BME280;9896;42.486;26.506;2022-10-17T06:02:14;101400.38;;;10.77;57.20
19510;BME280;9896;42.486;26.506;2022-10-17T06:04:39;101397.84;;;10.91;57.35
19510;BME280;9896;42.486;26.506;2022-10-17T06:07:09;101395.78;;;11.48;55.50
19510;BME280;9896;42.486;26.506;2022-10-17T06:09:35;101384.28;;;11.93;54.28
19510;BME280;9896;42.486;26.506;2022-10-17T06:12:00;101393.16;;;12.17;53.22
19510;BME280;9896;42.486;26.506;2022-10-17T06:14:26;101394.97;;;11.40;55.24
19510;BME280;9896;42.486;26.506;2022-10-17T06:16:51;101397.53;;;11.64;55.63
19510;BME280;9896;42.486;26.506;2022-10-17T06:19:17;101387.50;;;12.49;52.93
19510;BME280;9896;42.486;26.506;2022-10-17T06:21:42;101392.59;;;13.11;51.62
19510;BME280;9896;42.486;26.506;2022-10-17T06:24:08;101393.03;;;13.29;51.29
19510;BME280;9896;42.486;26.506;2022-10-17T06:26:33;101401.72;;;13.60;50.52
19510;BME280;9896;42.486;26.506;2022-10-17T06:28:59;101395.84;;;13.71;50.17
19510;BME280;9896;42.486;26.506;2022-10-17T06:31:24;101399.91;;;14.24;48.83
19510;BME280;9896;42.486;26.506;2022-10-17T06:33:50;101408.28;;;14.51;48.25
19510;BME280;9896;42.486;26.506;2022-10-17T06:36:15;101395.75;;;14.71;47.31
19510;BME280;9896;42.486;26.506;2022-10-17T06:38:40;101397.47;;;14.78;47.95
19510;BME280;9896;42.486;26.506;2022-10-17T06:41:09;101404.13;;;15.17;46.77
19510;BME280;9896;42.486;26.506;2022-10-17T06:43:36;101408.59;;;15.38;46.17
19510;BME280;9896;42.486;26.506;2022-10-17T06:46:02;101405.06;;;15.37;46.71
19510;BME280;9896;42.486;26.506;2022-10-17T06:48:27;101403.44;;;15.02;47.31
19510;BME280;9896;42.486;26.506;2022-10-17T06:50:53;101407.09;;;15.69;45.96
19510;BME280;9896;42.486;26.506;2022-10-17T06:53:22;101409.09;;;15.48;46.28
19510;BME280;9896;42.486;26.506;2022-10-17T06:55:52;101398.41;;;15.94;45.38
19510;BME280;9896;42.486;26.506;2022-10-17T06:58:19;101410.19;;;15.60;46.43
19510;BME280;9896;42.486;26.506;2022-10-17T07:00:45;101408.38;;;14.92;47.87
19510;BME280;9896;42.486;26.506;2022-10-17T07:03:10;101419.59;;;13.82;50.33
19510;BME280;9896;42.486;26.506;2022-10-17T07:05:36;101415.06;;;13.18;53.01
19510;BME280;9896;42.486;26.506;2022-10-17T07:08:03;101410.44;;;13.77;51.35
19510;BME280;9896;42.486;26.506;2022-10-17T07:10:29;101406.53;;;14.01;51.33
19510;BME280;9896;42.486;26.506;2022-10-17T07:12:54;101414.53;;;14.15;50.31
19510;BME280;9896;42.486;26.506;2022-10-17T07:15:20;101407.28;;;14.16;50.24
19510;BME280;9896;42.486;26.506;2022-10-17T07:17:48;101422.00;;;13.41;52.53
19510;BME280;9896;42.486;26.506;2022-10-17T07:20:16;101400.72;;;13.61;52.71
19510;BME280;9896;42.486;26.506;2022-10-17T07:22:42;101409.13;;;14.79;50.51
19510;BME280;9896;42.486;26.506;2022-10-17T07:25:08;101409.19;;;15.33;48.80
19510;BME280;9896;42.486;26.506;2022-10-17T07:27:34;101409.56;;;15.58;48.68
19510;BME280;9896;42.486;26.506;2022-10-17T07:29:59;101409.47;;;15.45;49.13
19510;BME280;9896;42.486;26.506;2022-10-17T07:32:24;101409.00;;;15.75;48.74
19510;BME280;9896;42.486;26.506;2022-10-17T07:34:50;101414.84;;;15.86;48.87
19510;BME280;9896;42.486;26.506;2022-10-17T07:37:15;101412.72;;;14.65;52.54
19510;BME280;9896;42.486;26.506;2022-10-17T07:39:41;101408.59;;;15.78;49.67
19510;BME280;9896;42.486;26.506;2022-10-17T07:42:06;101403.81;;;15.87;49.83
19510;BME280;9896;42.486;26.506;2022-10-17T07:44:32;101396.22;;;16.30;48.94
19510;BME280;9896;42.486;26.506;2022-10-17T07:46:57;101403.50;;;15.15;52.41
19510;BME280;9896;42.486;26.506;2022-10-17T07:49:23;101407.97;;;15.83;51.88
19510;BME280;9896;42.486;26.506;2022-10-17T07:51:48;101406.09;;;15.77;51.75
19510;BME280;9896;42.486;26.506;2022-10-17T07:54:14;101390.16;;;16.35;51.10
19510;BME280;9896;42.486;26.506;2022-10-17T07:56:39;101393.31;;;16.64;50.53
19510;BME280;9896;42.486;26.506;2022-10-17T07:59:05;101386.41;;;16.95;50.45
19510;BME280;9896;42.486;26.506;2022-10-17T08:01:31;101383.59;;;17.28;49.76
19510;BME280;9896;42.486;26.506;2022-10-17T08:03:56;101390.22;;;17.38;49.29
19510;BME280;9896;42.486;26.506;2022-10-17T08:06:21;101392.91;;;17.89;47.78
19510;BME280;9896;42.486;26.506;2022-10-17T08:08:47;101382.91;;;17.32;48.51
19510;BME280;9896;42.486;26.506;2022-10-17T08:11:13;101376.72;;;17.12;49.08
19510;BME280;9896;42.486;26.506;2022-10-17T08:13:39;101395.78;;;16.40;50.89
19510;BME280;9896;42.486;26.506;2022-10-17T08:16:08;101397.25;;;16.68;50.36
19510;BME280;9896;42.486;26.506;2022-10-17T08:18:35;101411.84;;;16.54;50.80
19510;BME280;9896;42.486;26.506;2022-10-17T08:21:02;101397.88;;;16.77;50.57
19510;BME280;9896;42.486;26.506;2022-10-17T08:23:30;101396.38;;;16.88;50.92
19510;BME280;9896;42.486;26.506;2022-10-17T08:25:58;101393.06;;;16.79;51.16
19510;BME280;9896;42.486;26.506;2022-10-17T08:28:25;101404.72;;;16.47;51.54
19510;BME280;9896;42.486;26.506;2022-10-17T08:30:50;101402.19;;;17.04;50.47
19510;BME280;9896;42.486;26.506;2022-10-17T08:33:15;101409.50;;;17.10;50.00
19510;BME280;9896;42.486;26.506;2022-10-17T08:35:41;101399.88;;;17.14;50.53
19510;BME280;9896;42.486;26.506;2022-10-17T08:38:06;101394.22;;;17.16;50.89
19510;BME280;9896;42.486;26.506;2022-10-17T08:40:32;101389.34;;;16.34;52.84
19510;BME280;9896;42.486;26.506;2022-10-17T08:48:16;101393.69;;;16.81;52.99
19510;BME280;9896;42.486;26.506;2022-10-17T08:50:50;101395.03;;;17.30;51.92
19510;BME280;9896;42.486;26.506;2022-10-17T08:58:42;101389.56;;;16.65;53.29
19510;BME280;9896;42.486;26.506;2022-10-17T09:06:34;101380.00;;;17.34;51.75
19510;BME280;9896;42.486;26.506;2022-10-17T09:19:48;101388.94;;;18.48;50.03
19510;BME280;9896;42.486;26.506;2022-10-17T09:22:21;101383.72;;;18.71;49.66
19510;BME280;9896;42.486;26.506;2022-10-17T09:24:57;101380.84;;;18.41;49.84
19510;BME280;9896;42.486;26.506;2022-10-17T09:27:43;101375.06;;;18.31;49.60
19510;BME280;9896;42.486;26.506;2022-10-17T09:32:46;101378.56;;;18.38;49.77
19510;BME280;9896;42.486;26.506;2022-10-17T09:35:16;101382.41;;;18.55;49.23
19510;BME280;9896;42.486;26.506;2022-10-17T09:37:42;101362.88;;;18.16;49.73
19510;BME280;9896;42.486;26.506;2022-10-17T09:40:15;101367.66;;;18.45;49.23
19510;BME280;9896;42.486;26.506;2022-10-17T09:42:43;101364.28;;;18.25;49.21
19510;BME280;9896;42.486;26.506;2022-10-17T09:47:42;101370.94;;;18.78;48.23
19510;BME280;9896;42.486;26.506;2022-10-17T09:50:30;101379.38;;;18.14;49.56
19510;BME280;9896;42.486;26.506;2022-10-17T09:53:01;101364.53;;;18.91;47.46
19510;BME280;9896;42.486;26.506;2022-10-17T09:55:44;101369.25;;;18.95;47.21
19510;BME280;9896;42.486;26.506;2022-10-17T09:58:12;101367.91;;;18.86;47.60
19510;BME280;9896;42.486;26.506;2022-10-17T10:03:25;101372.59;;;18.30;48.99
19510;BME280;9896;42.486;26.506;2022-10-17T10:06:05;101366.75;;;18.76;48.46
19510;BME280;9896;42.486;26.506;2022-10-17T10:08:36;101368.41;;;18.77;48.13
19510;BME280;9896;42.486;26.506;2022-10-17T10:11:05;101369.03;;;18.79;47.53
19510;BME280;9896;42.486;26.506;2022-10-17T10:13:33;101363.03;;;18.95;47.49
19510;BME280;9896;42.486;26.506;2022-10-17T10:16:46;101355.59;;;18.84;47.49
19510;BME280;9896;42.486;26.506;2022-10-17T10:19:00;101350.28;;;18.52;48.45
19510;BME280;9896;42.486;26.506;2022-10-17T10:21:26;101346.50;;;18.47;48.57
19510;BME280;9896;42.486;26.506;2022-10-17T10:26:39;101346.53;;;18.72;47.17
19510;BME280;9896;42.486;26.506;2022-10-17T10:32:05;101341.03;;;18.78;47.46
19510;BME280;9896;42.486;26.506;2022-10-17T10:34:31;101346.91;;;18.75;47.39
19510;BME280;9896;42.486;26.506;2022-10-17T10:37:03;101349.34;;;19.01;46.55
19510;BME280;9896;42.486;26.506;2022-10-17T10:39:46;101347.69;;;18.82;46.79
19510;BME280;9896;42.486;26.506;2022-10-17T10:44:45;101318.44;;;18.60;47.37
19510;BME280;9896;42.486;26.506;2022-10-17T10:49:45;101330.59;;;19.12;46.17
19510;BME280;9896;42.486;26.506;2022-10-17T10:52:33;101332.69;;;19.28;45.67
19510;BME280;9896;42.486;26.506;2022-10-17T10:55:14;101337.84;;;19.95;44.30
19510;BME280;9896;42.486;26.506;2022-10-17T10:57:43;101330.53;;;19.96;43.90
19510;BME280;9896;42.486;26.506;2022-10-17T11:00:14;101318.28;;;20.40;42.66
19510;BME280;9896;42.486;26.506;2022-10-17T11:02:51;101331.47;;;20.02;43.38
19510;BME280;9896;42.486;26.506;2022-10-17T11:05:35;101324.72;;;19.63;44.13
19510;BME280;9896;42.486;26.506;2022-10-17T11:08:05;101316.41;;;20.29;42.51
19510;BME280;9896;42.486;26.506;2022-10-17T11:10:43;101316.97;;;20.54;41.41
19510;BME280;9896;42.486;26.506;2022-10-17T11:13:22;101310.69;;;19.77;42.90
19510;BME280;9896;42.486;26.506;2022-10-17T11:16:00;101297.06;;;19.18;44.51
19510;BME280;9896;42.486;26.506;2022-10-17T11:18:43;101315.63;;;20.10;42.68
19510;BME280;9896;42.486;26.506;2022-10-17T11:21:17;101320.72;;;19.65;42.24
19510;BME280;9896;42.486;26.506;2022-10-17T11:23:50;101305.72;;;19.74;42.60
19510;BME280;9896;42.486;26.506;2022-10-17T11:26:25;101301.97;;;19.87;42.64
19510;BME280;9896;42.486;26.506;2022-10-17T11:28:55;101302.97;;;20.16;42.22
19510;BME280;9896;42.486;26.506;2022-10-17T11:31:24;101300.00;;;20.75;40.59
19510;BME280;9896;42.486;26.506;2022-10-17T11:34:13;101309.47;;;20.15;41.57
19510;BME280;9896;42.486;26.506;2022-10-17T11:36:45;101300.69;;;20.01;41.88
19510;BME280;9896;42.486;26.506;2022-10-17T11:41:47;101302.06;;;20.57;40.61
19510;BME280;9896;42.486;26.506;2022-10-17T11:44:26;101301.06;;;20.16;40.77
19510;BME280;9896;42.486;26.506;2022-10-17T11:47:03;101300.16;;;20.34;40.43
19510;BME280;9896;42.486;26.506;2022-10-17T11:49:43;101305.13;;;20.60;39.83
19510;BME280;9896;42.486;26.506;2022-10-17T11:52:36;101303.31;;;20.19;40.84
19510;BME280;9896;42.486;26.506;2022-10-17T12:00:47;101306.56;;;20.39;40.11
19510;BME280;9896;42.486;26.506;2022-10-17T12:12:01;101307.06;;;19.95;39.84
19510;BME280;9896;42.486;26.506;2022-10-17T12:14:43;101305.13;;;20.25;39.55
19510;BME280;9896;42.486;26.506;2022-10-17T12:17:31;101315.47;;;20.05;40.25
19510;BME280;9896;42.486;26.506;2022-10-17T12:22:54;101315.19;;;20.60;38.61
19510;BME280;9896;42.486;26.506;2022-10-17T12:25:26;101311.47;;;21.12;37.16
19510;BME280;9896;42.486;26.506;2022-10-17T12:49:48;101311.31;;;21.30;37.01
19510;BME280;9896;42.486;26.506;2022-10-17T12:54:42;101308.84;;;21.17;36.77
19510;BME280;9896;42.486;26.506;2022-10-17T12:57:31;101296.91;;;20.83;37.59
19510;BME280;9896;42.486;26.506;2022-10-17T13:03:30;101291.03;;;20.52;38.26
19510;BME280;9896;42.486;26.506;2022-10-17T13:06:01;101296.44;;;20.75;37.61
19510;BME280;9896;42.486;26.506;2022-10-17T13:08:30;101292.25;;;21.19;37.02
19510;BME280;9896;42.486;26.506;2022-10-17T13:10:57;101299.13;;;21.21;36.64
19510;BME280;9896;42.486;26.506;2022-10-17T13:15:58;101303.31;;;20.89;37.03
19510;BME280;9896;42.486;26.506;2022-10-17T13:18:27;101304.66;;;20.63;37.64
19510;BME280;9896;42.486;26.506;2022-10-17T13:21:00;101296.09;;;20.95;37.72
19510;BME280;9896;42.486;26.506;2022-10-17T13:23:34;101290.34;;;21.48;36.45
19510;BME280;9896;42.486;26.506;2022-10-17T13:26:06;101294.00;;;20.62;38.14
19510;BME280;9896;42.486;26.506;2022-10-17T13:28:32;101287.22;;;20.64;37.55
19510;BME280;9896;42.486;26.506;2022-10-17T13:30:57;101299.41;;;20.04;38.55
19510;BME280;9896;42.486;26.506;2022-10-17T13:33:41;101294.53;;;20.99;37.13
19510;BME280;9896;42.486;26.506;2022-10-17T13:36:13;101305.28;;;20.54;38.22
19510;BME280;9896;42.486;26.506;2022-10-17T13:38:40;101294.72;;;20.46;38.20
19510;BME280;9896;42.486;26.506;2022-10-17T13:41:10;101300.84;;;20.76;38.04
19510;BME280;9896;42.486;26.506;2022-10-17T13:43:38;101315.88;;;20.09;39.43
19510;BME280;9896;42.486;26.506;2022-10-17T13:46:04;101298.84;;;20.71;38.37
19510;BME280;9896;42.486;26.506;2022-10-17T13:48:33;101306.84;;;21.01;37.30
19510;BME280;9896;42.486;26.506;2022-10-17T13:51:01;101288.03;;;20.76;38.02
19510;BME280;9896;42.486;26.506;2022-10-17T13:53:38;101300.19;;;21.09;37.66
19510;BME280;9896;42.486;26.506;2022-10-17T13:56:14;101312.59;;;20.30;38.62
19510;BME280;9896;42.486;26.506;2022-10-17T13:58:42;101307.25;;;20.35;38.52
19510;BME280;9896;42.486;26.506;2022-10-17T14:01:08;101304.38;;;20.07;39.38
19510;BME280;9896;42.486;26.506;2022-10-17T14:03:35;101298.34;;;20.05;39.58
19510;BME280;9896;42.486;26.506;2022-10-17T14:09:13;101297.38;;;20.22;38.85
19510;BME280;9896;42.486;26.506;2022-10-17T14:11:43;101293.88;;;20.57;38.57
19510;BME280;9896;42.486;26.506;2022-10-17T14:14:20;101291.59;;;20.07;39.32
19510;BME280;9896;42.486;26.506;2022-10-17T14:16:46;101298.34;;;20.16;39.53
19510;BME280;9896;42.486;26.506;2022-10-17T14:19:33;101289.41;;;19.86;39.71
19510;BME280;9896;42.486;26.506;2022-10-17T14:24:44;101294.19;;;20.14;39.23
19510;BME280;9896;42.486;26.506;2022-10-17T14:27:30;101301.06;;;20.05;39.58
19510;BME280;9896;42.486;26.506;2022-10-17T14:29:58;101303.03;;;19.86;40.27
19510;BME280;9896;42.486;26.506;2022-10-17T14:32:29;101301.16;;;20.10;39.77
19510;BME280;9896;42.486;26.506;2022-10-17T14:34:58;101299.09;;;20.35;39.30
19510;BME280;9896;42.486;26.506;2022-10-17T14:37:41;101298.22;;;20.11;39.92
19510;BME280;9896;42.486;26.506;2022-10-17T14:40:15;101305.25;;;20.30;39.67
19510;BME280;9896;42.486;26.506;2022-10-17T14:42:41;101304.22;;;19.90;40.63
19510;BME280;9896;42.486;26.506;2022-10-17T14:45:12;101302.31;;;19.79;40.62
19510;BME280;9896;42.486;26.506;2022-10-17T14:47:38;101309.31;;;19.98;39.98
19510;BME280;9896;42.486;26.506;2022-10-17T14:52:36;101305.59;;;19.81;40.22
19510;BME280;9896;42.486;26.506;2022-10-17T14:55:26;101310.44;;;20.20;39.61
19510;BME280;9896;42.486;26.506;2022-10-17T14:57:52;101315.75;;;19.62;41.19
19510;BME280;9896;42.486;26.506;2022-10-17T15:00:19;101304.63;;;19.64;41.34
19510;BME280;9896;42.486;26.506;2022-10-17T15:02:46;101319.75;;;19.60;41.54
19510;BME280;9896;42.486;26.506;2022-10-17T15:05:12;101316.38;;;19.46;41.57
19510;BME280;9896;42.486;26.506;2022-10-17T15:07:38;101321.34;;;19.49;41.61
19510;BME280;9896;42.486;26.506;2022-10-17T15:10:04;101314.88;;;18.95;42.97
19510;BME280;9896;42.486;26.506;2022-10-17T15:12:30;101324.72;;;19.15;42.88
19510;BME280;9896;42.486;26.506;2022-10-17T15:14:57;101323.53;;;18.74;43.56
19510;BME280;9896;42.486;26.506;2022-10-17T15:17:29;101328.91;;;18.56;43.86